ADDS METAR Data INFO
IDs: Format: Raw Decoded Include TAF

Data at: 1504 UTC 11 Dec 2017

KTRM 111452Z AUTO 36005KT 10SM CLR 07/M03 A3020 RMK AO2 SLP227 T00721033 53008
KTRM 111352Z AUTO 33005KT 10SM CLR 11/M06 A3019 RMK AO2 SLP223 T01061056
KTRM 111252Z AUTO 36007KT 10SM CLR 11/M06 A3018 RMK AO2 SLP219 T01061056
KTRM 111152Z AUTO 00000KT 10SM CLR 08/M03 A3018 RMK AO2 SLP218 T00781028 10156 20078 50002
KTRM 111052Z AUTO 35004KT 10SM CLR 12/M08 A3018 RMK AO2 SLP220 T01171078
KTRM 110952Z AUTO 03005KT 10SM CLR 10/M06 A3018 RMK AO2 SLP220 T01001056
KTRM 110852Z AUTO 28004KT 10SM CLR 12/M07 A3017 RMK AO2 SLP218 T01221067 55003
KTRM 110752Z AUTO 36008KT 10SM CLR 16/M12 A3017 RMK AO2 SLP217 T01561117 402780067
KTRM 110652Z AUTO 36008KT 10SM CLR 16/M09 A3018 RMK AO2 SLP219 T01561094
KTRM 110552Z AUTO 36007KT 10SM CLR 16/M08 A3018 RMK AO2 SLP220 T01561078 10256 20106 51004
KTRM 110452Z AUTO 36007KT 10SM CLR 14/M04 A3018 RMK AO2 SLP218 T01441044
KTRM 110352Z AUTO 33003KT 10SM CLR 14/M01 A3017 RMK AO2 SLP218 T01391006
KTRM 110252Z AUTO 34003KT 10SM CLR 14/00 A3017 RMK AO2 SLP215 T01440000 53009
KTRM 110152Z AUTO 00000KT 10SM CLR 17/01 A3015 RMK AO2 SLP210 T01720011
KTRM 110052Z AUTO 34003KT 10SM CLR 18/01 A3014 RMK AO2 SLP206 T01830006
KTRM 102352Z AUTO 05003KT 10SM CLR 26/M04 A3014 RMK AO2 SLP206 T02561044 10278 20217 56009
KTRM 102252Z AUTO 00000KT 10SM CLR 28/M09 A3014 RMK AO2 SLP207 T02781094
KTRM 102152Z AUTO 00000KT 10SM CLR 27/M11 A3014 RMK AO2 SLP207 T02721111
KTRM 102052Z AUTO 30003KT 10SM CLR 27/M11 A3016 RMK AO2 SLP216 T02671111 58030
KTRM 101952Z AUTO 29005KT 10SM CLR 27/M10 A3019 RMK AO2 SLP225 T02671100
KTRM 101852Z AUTO 31004KT 10SM CLR 24/M08 A3023 RMK AO2 SLP237 T02441078
KTRM 101752Z AUTO 34005KT 10SM CLR 21/M03 A3025 RMK AO2 SLP245 T02111033 10211 20072 51009
KTRM 101652Z AUTO 31003KT 10SM CLR 17/M03 A3025 RMK AO2 SLP244 T01671033
KTRM 101552Z AUTO 31004KT 10SM CLR 12/M04 A3024 RMK AO2 SLP239 T01171044
KTRM 101452Z AUTO 33006KT 10SM CLR 09/M07 A3023 RMK AO2 SLP236 T00941072 53007
KTRM 101352Z AUTO 33004KT 10SM CLR 08/M06 A3022 RMK AO2 SLP233 T00831056
KTRM 101252Z AUTO 28005KT 10SM CLR 08/M07 A3021 RMK AO2 SLP230 T00781067
KTRM 101152Z AUTO 33006KT 10SM CLR 08/M06 A3021 RMK AO2 SLP229 T00831061 10150 20067 58003
KTRM 101052Z AUTO 32006KT 10SM CLR 07/M05 A3021 RMK AO2 SLP231 T00721050
KTRM 100952Z AUTO 32005KT 10SM CLR 07/M04 A3022 RMK AO2 SLP232 T00671044
KTRM 100852Z AUTO 34003KT 10SM CLR 12/M09 A3022 RMK AO2 SLP234 T01221089 56009
KTRM 100752Z AUTO 35007KT 10SM CLR 13/M08 A3022 RMK AO2 SLP235 T01281078 402500011
KTRM 100652Z AUTO 34004KT 10SM CLR 08/M03 A3024 RMK AO2 SLP239 T00831028
KTRM 100552Z AUTO 01006KT 7SM CLR 13/M05 A3024 RMK AO2 SLP241 T01331050 10233 20100 53005
KTRM 100452Z AUTO 01005KT 10SM CLR 14/M01 A3024 RMK AO2 SLP238 T01391006
KTRM 100352Z AUTO 35006KT 10SM CLR 12/04 A3023 RMK AO2 SLP234 T01170044